sensor_id;sensor_type;location;lat;lon;timestamp;temperature;humidity
26721;HTU21D;15950;51.112;6.966;2023-03-01T00:00:42;1.44;66.94
26721;HTU21D;15950;51.112;6.966;2023-03-01T00:03:42;1.31;67.01
26721;HTU21D;15950;51.112;6.966;2023-03-01T00:06:43;1.30;67.42
26721;HTU21D;15950;51.112;6.966;2023-03-01T00:09:42;1.40;67.45
26721;HTU21D;15950;51.112;6.966;2023-03-01T00:12:42;1.37;67.67
26721;HTU21D;15950;51.112;6.966;2023-03-01T00:15:42;1.38;67.72
26721;HTU21D;15950;51.112;6.966;2023-03-01T00:18:42;1.32;67.69
26721;HTU21D;15950;51.112;6.966;2023-03-01T00:21:42;1.46;67.36
26721;HTU21D;15950;51.112;6.966;2023-03-01T00:24:42;1.37;67.34
26721;HTU21D;15950;51.112;6.966;2023-03-01T00:27:42;1.37;67.19
26721;HTU21D;15950;51.112;6.966;2023-03-01T00:30:42;1.29;67.09
26721;HTU21D;15950;51.112;6.966;2023-03-01T00:33:42;1.36;67.19
26721;HTU21D;15950;51.112;6.966;2023-03-01T00:36:42;1.50;66.70
26721;HTU21D;15950;51.112;6.966;2023-03-01T00:39:42;1.72;66.17
26721;HTU21D;15950;51.112;6.966;2023-03-01T00:42:42;1.64;65.79
26721;HTU21D;15950;51.112;6.966;2023-03-01T00:45:42;1.72;65.88
26721;HTU21D;15950;51.112;6.966;2023-03-01T00:48:42;1.56;65.91
26721;HTU21D;15950;51.112;6.966;2023-03-01T00:51:42;1.50;66.20
26721;HTU21D;15950;51.112;6.966;2023-03-01T00:54:42;1.65;66.04
26721;HTU21D;15950;51.112;6.966;2023-03-01T00:57:42;1.58;66.18
26721;HTU21D;15950;51.112;6.966;2023-03-01T01:00:42;1.61;66.01
26721;HTU21D;15950;51.112;6.966;2023-03-01T01:03:44;1.56;66.00
26721;HTU21D;15950;51.112;6.966;2023-03-01T01:06:46;1.50;65.85
26721;HTU21D;15950;51.112;6.966;2023-03-01T01:09:42;1.57;65.94
26721;HTU21D;15950;51.112;6.966;2023-03-01T01:12:46;1.68;65.66
26721;HTU21D;15950;51.112;6.966;2023-03-01T01:15:42;1.59;65.67
26721;HTU21D;15950;51.112;6.966;2023-03-01T01:18:42;1.56;65.25
26721;HTU21D;15950;51.112;6.966;2023-03-01T01:21:42;1.39;65.99
26721;HTU21D;15950;51.112;6.966;2023-03-01T01:24:42;1.47;66.09
26721;HTU21D;15950;51.112;6.966;2023-03-01T01:27:42;1.61;65.65
26721;HTU21D;15950;51.112;6.966;2023-03-01T01:30:42;1.68;65.36
26721;HTU21D;15950;51.112;6.966;2023-03-01T01:33:42;1.70;64.88
26721;HTU21D;15950;51.112;6.966;2023-03-01T01:36:42;1.34;65.33
26721;HTU21D;15950;51.112;6.966;2023-03-01T01:39:42;1.24;66.53
26721;HTU21D;15950;51.112;6.966;2023-03-01T01:42:42;1.42;66.26
26721;HTU21D;15950;51.112;6.966;2023-03-01T01:45:42;1.30;66.14
26721;HTU21D;15950;51.112;6.966;2023-03-01T01:48:48;1.42;66.01
26721;HTU21D;15950;51.112;6.966;2023-03-01T01:51:45;1.48;65.88
26721;HTU21D;15950;51.112;6.966;2023-03-01T01:54:51;1.51;65.49
26721;HTU21D;15950;51.112;6.966;2023-03-01T01:57:45;1.43;65.30
26721;HTU21D;15950;51.112;6.966;2023-03-01T02:00:42;1.19;66.37
26721;HTU21D;15950;51.112;6.966;2023-03-01T02:03:44;1.43;66.30
26721;HTU21D;15950;51.112;6.966;2023-03-01T02:06:51;1.31;66.03
26721;HTU21D;15950;51.112;6.966;2023-03-01T02:09:46;1.30;65.92
26721;HTU21D;15950;51.112;6.966;2023-03-01T02:12:42;1.29;65.86
26721;HTU21D;15950;51.112;6.966;2023-03-01T02:15:42;1.26;66.22
26721;HTU21D;15950;51.112;6.966;2023-03-01T02:18:43;1.27;65.86
26721;HTU21D;15950;51.112;6.966;2023-03-01T02:21:53;1.24;65.81
26721;HTU21D;15950;51.112;6.966;2023-03-01T02:27:53;1.07;66.20
26721;HTU21D;15950;51.112;6.966;2023-03-01T02:30:47;0.98;66.79
26721;HTU21D;15950;51.112;6.966;2023-03-01T02:33:43;0.79;67.17
26721;HTU21D;15950;51.112;6.966;2023-03-01T02:36:48;0.83;67.29
26721;HTU21D;15950;51.112;6.966;2023-03-01T02:39:54;0.64;67.72
26721;HTU21D;15950;51.112;6.966;2023-03-01T02:42:48;0.75;68.10
26721;HTU21D;15950;51.112;6.966;2023-03-01T02:45:48;0.83;67.84
26721;HTU21D;15950;51.112;6.966;2023-03-01T02:48:43;0.94;67.53
26721;HTU21D;15950;51.112;6.966;2023-03-01T02:57:44;0.52;69.16
26721;HTU21D;15950;51.112;6.966;2023-03-01T03:00:42;0.71;68.84
26721;HTU21D;15950;51.112;6.966;2023-03-01T03:03:42;0.83;68.09
26721;HTU21D;15950;51.112;6.966;2023-03-01T03:06:45;0.82;67.91
26721;HTU21D;15950;51.112;6.966;2023-03-01T03:09:42;0.61;68.33
26721;HTU21D;15950;51.112;6.966;2023-03-01T03:12:42;0.63;68.23
26721;HTU21D;15950;51.112;6.966;2023-03-01T03:15:43;0.62;68.04
26721;HTU21D;15950;51.112;6.966;2023-03-01T03:18:42;0.71;67.75
26721;HTU21D;15950;51.112;6.966;2023-03-01T03:21:42;0.61;68.01
26721;HTU21D;15950;51.112;6.966;2023-03-01T03:24:42;0.42;68.60
26721;HTU21D;15950;51.112;6.966;2023-03-01T03:27:43;0.74;68.30
26721;HTU21D;15950;51.112;6.966;2023-03-01T03:30:42;0.44;68.58
26721;HTU21D;15950;51.112;6.966;2023-03-01T03:33:42;0.43;68.91
26721;HTU21D;15950;51.112;6.966;2023-03-01T03:36:42;0.29;69.29
26721;HTU21D;15950;51.112;6.966;2023-03-01T03:39:42;0.10;69.80
26721;HTU21D;15950;51.112;6.966;2023-03-01T03:42:42;-0.03;70.35
26721;HTU21D;15950;51.112;6.966;2023-03-01T03:45:44;0.34;69.54
26721;HTU21D;15950;51.112;6.966;2023-03-01T03:48:43;0.47;68.91
26721;HTU21D;15950;51.112;6.966;2023-03-01T03:51:42;0.20;69.13
26721;HTU21D;15950;51.112;6.966;2023-03-01T03:54:42;0.40;69.15
26721;HTU21D;15950;51.112;6.966;2023-03-01T03:57:42;0.45;68.71
26721;HTU21D;15950;51.112;6.966;2023-03-01T04:00:44;0.12;69.00
26721;HTU21D;15950;51.112;6.966;2023-03-01T04:03:42;0.28;68.75
26721;HTU21D;15950;51.112;6.966;2023-03-01T04:06:42;0.15;69.12
26721;HTU21D;15950;51.112;6.966;2023-03-01T04:09:43;0.21;69.52
26721;HTU21D;15950;51.112;6.966;2023-03-01T04:12:42;0.34;69.12
26721;HTU21D;15950;51.112;6.966;2023-03-01T04:15:42;0.30;68.50
26721;HTU21D;15950;51.112;6.966;2023-03-01T04:18:42;0.45;68.38
26721;HTU21D;15950;51.112;6.966;2023-03-01T04:21:42;0.30;68.41
26721;HTU21D;15950;51.112;6.966;2023-03-01T04:24:42;0.31;68.71
26721;HTU21D;15950;51.112;6.966;2023-03-01T04:27:42;0.29;68.66
26721;HTU21D;15950;51.112;6.966;2023-03-01T04:30:42;0.10;68.53
26721;HTU21D;15950;51.112;6.966;2023-03-01T04:33:53;-0.04;69.54
26721;HTU21D;15950;51.112;6.966;2023-03-01T04:36:42;-0.19;70.35
26721;HTU21D;15950;51.112;6.966;2023-03-01T04:39:42;-0.24;70.93
26721;HTU21D;15950;51.112;6.966;2023-03-01T04:42:42;-0.08;71.19
26721;HTU21D;15950;51.112;6.966;2023-03-01T04:45:42;0.04;70.93
26721;HTU21D;15950;51.112;6.966;2023-03-01T04:48:43;0.22;70.20
26721;HTU21D;15950;51.112;6.966;2023-03-01T04:51:42;0.09;69.92
26721;HTU21D;15950;51.112;6.966;2023-03-01T04:54:42;0.15;69.77
26721;HTU21D;15950;51.112;6.966;2023-03-01T04:57:42;0.02;70.22
26721;HTU21D;15950;51.112;6.966;2023-03-01T05:00:42;0.06;70.24
26721;HTU21D;15950;51.112;6.966;2023-03-01T05:03:47;0.24;70.17
26721;HTU21D;15950;51.112;6.966;2023-03-01T05:06:42;0.06;70.23
26721;HTU21D;15950;51.112;6.966;2023-03-01T05:09:42;0.02;70.50
26721;HTU21D;15950;51.112;6.966;2023-03-01T05:12:42;-0.06;70.42
26721;HTU21D;15950;51.112;6.966;2023-03-01T05:15:42;-0.18;70.67
26721;HTU21D;15950;51.112;6.966;2023-03-01T05:18:42;-0.32;70.86
26721;HTU21D;15950;51.112;6.966;2023-03-01T05:21:43;-0.40;71.35
26721;HTU21D;15950;51.112;6.966;2023-03-01T05:24:42;-0.92;72.09
26721;HTU21D;15950;51.112;6.966;2023-03-01T05:27:42;-0.65;72.61
26721;HTU21D;15950;51.112;6.966;2023-03-01T05:30:42;-0.70;72.46
26721;HTU21D;15950;51.112;6.966;2023-03-01T05:33:42;-0.70;72.42
26721;HTU21D;15950;51.112;6.966;2023-03-01T05:36:42;-0.55;72.88
26721;HTU21D;15950;51.112;6.966;2023-03-01T05:39:42;-0.50;72.67
26721;HTU21D;15950;51.112;6.966;2023-03-01T05:42:43;-0.61;72.52
26721;HTU21D;15950;51.112;6.966;2023-03-01T05:45:42;-0.53;72.34
26721;HTU21D;15950;51.112;6.966;2023-03-01T05:48:42;-0.30;71.88
26721;HTU21D;15950;51.112;6.966;2023-03-01T05:51:43;-0.16;71.52
26721;HTU21D;15950;51.112;6.966;2023-03-01T05:54:42;-0.37;71.67
26721;HTU21D;15950;51.112;6.966;2023-03-01T05:57:42;-0.19;71.67
26721;HTU21D;15950;51.112;6.966;2023-03-01T06:00:43;-0.11;71.03
26721;HTU21D;15950;51.112;6.966;2023-03-01T06:03:42;-0.02;70.71
26721;HTU21D;15950;51.112;6.966;2023-03-01T06:06:42;-0.10;70.55
26721;HTU21D;15950;51.112;6.966;2023-03-01T06:09:42;0.06;70.17
26721;HTU21D;15950;51.112;6.966;2023-03-01T06:12:43;0.07;70.00
26721;HTU21D;15950;51.112;6.966;2023-03-01T06:15:42;0.07;69.95
26721;HTU21D;15950;51.112;6.966;2023-03-01T06:18:42;0.18;69.71
26721;HTU21D;15950;51.112;6.966;2023-03-01T06:21:42;0.19;69.82
26721;HTU21D;15950;51.112;6.966;2023-03-01T06:24:42;0.15;69.68
26721;HTU21D;15950;51.112;6.966;2023-03-01T06:27:42;0.03;70.16
26721;HTU21D;15950;51.112;6.966;2023-03-01T06:30:42;0.10;69.90
26721;HTU21D;15950;51.112;6.966;2023-03-01T06:33:42;0.15;69.93
26721;HTU21D;15950;51.112;6.966;2023-03-01T06:36:42;0.05;69.82
26721;HTU21D;15950;51.112;6.966;2023-03-01T06:39:42;0.27;69.65
26721;HTU21D;15950;51.112;6.966;2023-03-01T06:42:43;0.31;69.16
26721;HTU21D;15950;51.112;6.966;2023-03-01T06:45:42;0.32;69.04
26721;HTU21D;15950;51.112;6.966;2023-03-01T06:48:42;0.19;69.23
26721;HTU21D;15950;51.112;6.966;2023-03-01T06:51:42;0.26;69.24
26721;HTU21D;15950;51.112;6.966;2023-03-01T06:54:42;0.32;69.10
26721;HTU21D;15950;51.112;6.966;2023-03-01T06:57:42;0.06;69.42
26721;HTU21D;15950;51.112;6.966;2023-03-01T07:00:42;0.02;69.80
26721;HTU21D;15950;51.112;6.966;2023-03-01T07:03:42;-0.03;70.18
26721;HTU21D;15950;51.112;6.966;2023-03-01T07:06:42;-0.01;69.99
26721;HTU21D;15950;51.112;6.966;2023-03-01T07:09:42;-0.04;70.35
26721;HTU21D;15950;51.112;6.966;2023-03-01T07:12:42;-0.05;70.55
26721;HTU21D;15950;51.112;6.966;2023-03-01T07:15:42;0.04;70.39
26721;HTU21D;15950;51.112;6.966;2023-03-01T07:18:42;0.10;70.26
26721;HTU21D;15950;51.112;6.966;2023-03-01T07:21:42;0.25;69.99
26721;HTU21D;15950;51.112;6.966;2023-03-01T07:24:42;0.25;69.81
26721;HTU21D;15950;51.112;6.966;2023-03-01T07:27:42;0.36;69.71
26721;HTU21D;15950;51.112;6.966;2023-03-01T07:30:42;0.39;69.68
26721;HTU21D;15950;51.112;6.966;2023-03-01T07:33:42;0.56;69.10
26721;HTU21D;15950;51.112;6.966;2023-03-01T07:36:42;0.67;68.26
26721;HTU21D;15950;51.112;6.966;2023-03-01T07:39:42;0.81;67.77
26721;HTU21D;15950;51.112;6.966;2023-03-01T07:42:42;0.91;67.54
26721;HTU21D;15950;51.112;6.966;2023-03-01T07:45:42;1.03;67.35
26721;HTU21D;15950;51.112;6.966;2023-03-01T07:48:42;1.04;66.66
26721;HTU21D;15950;51.112;6.966;2023-03-01T07:51:43;1.10;66.16
26721;HTU21D;15950;51.112;6.966;2023-03-01T07:54:45;1.21;65.83
26721;HTU21D;15950;51.112;6.966;2023-03-01T07:57:42;1.39;65.77
26721;HTU21D;15950;51.112;6.966;2023-03-01T08:00:42;1.43;65.42
26721;HTU21D;15950;51.112;6.966;2023-03-01T08:03:42;1.43;65.08
26721;HTU21D;15950;51.112;6.966;2023-03-01T08:06:42;1.82;65.39
26721;HTU21D;15950;51.112;6.966;2023-03-01T08:09:42;1.82;64.78
26721;HTU21D;15950;51.112;6.966;2023-03-01T08:12:42;1.83;64.27
26721;HTU21D;15950;51.112;6.966;2023-03-01T08:15:42;1.97;64.14
26721;HTU21D;15950;51.112;6.966;2023-03-01T08:18:42;2.07;63.75
26721;HTU21D;15950;51.112;6.966;2023-03-01T08:21:42;2.15;63.46
26721;HTU21D;15950;51.112;6.966;2023-03-01T08:24:42;2.26;63.00
26721;HTU21D;15950;51.112;6.966;2023-03-01T08:27:42;2.40;63.07
26721;HTU21D;15950;51.112;6.966;2023-03-01T08:30:42;2.43;62.58
26721;HTU21D;15950;51.112;6.966;2023-03-01T08:33:42;2.47;61.81
26721;HTU21D;15950;51.112;6.966;2023-03-01T08:36:44;2.44;61.67
26721;HTU21D;15950;51.112;6.966;2023-03-01T08:39:42;2.67;61.39
26721;HTU21D;15950;51.112;6.966;2023-03-01T08:42:42;2.66;61.14
26721;HTU21D;15950;51.112;6.966;2023-03-01T08:45:42;2.59;60.89
26721;HTU21D;15950;51.112;6.966;2023-03-01T08:48:42;2.86;60.83
26721;HTU21D;15950;51.112;6.966;2023-03-01T08:51:42;2.79;60.69
26721;HTU21D;15950;51.112;6.966;2023-03-01T08:54:42;2.77;60.35
26721;HTU21D;15950;51.112;6.966;2023-03-01T08:57:42;2.84;60.11
26721;HTU21D;15950;51.112;6.966;2023-03-01T09:00:42;3.16;59.93
26721;HTU21D;15950;51.112;6.966;2023-03-01T09:03:42;3.26;59.41
26721;HTU21D;15950;51.112;6.966;2023-03-01T09:06:42;3.18;59.22
26721;HTU21D;15950;51.112;6.966;2023-03-01T09:09:42;3.39;59.31
26721;HTU21D;15950;51.112;6.966;2023-03-01T09:12:42;3.38;58.37
26721;HTU21D;15950;51.112;6.966;2023-03-01T09:15:42;3.45;57.63
26721;HTU21D;15950;51.112;6.966;2023-03-01T09:18:42;3.54;57.43
26721;HTU21D;15950;51.112;6.966;2023-03-01T09:21:42;3.51;56.93
26721;HTU21D;15950;51.112;6.966;2023-03-01T09:24:42;3.78;57.13
26721;HTU21D;15950;51.112;6.966;2023-03-01T09:27:42;3.59;56.56
26721;HTU21D;15950;51.112;6.966;2023-03-01T09:30:42;3.60;56.00
26721;HTU21D;15950;51.112;6.966;2023-03-01T09:33:42;3.61;55.85
26721;HTU21D;15950;51.112;6.966;2023-03-01T09:36:42;3.70;55.69
26721;HTU21D;15950;51.112;6.966;2023-03-01T09:39:42;3.90;55.61
26721;HTU21D;15950;51.112;6.966;2023-03-01T09:43:05;4.03;55.42
26721;HTU21D;15950;51.112;6.966;2023-03-01T09:45:44;4.10;55.23
26721;HTU21D;15950;51.112;6.966;2023-03-01T09:48:50;4.29;55.33
26721;HTU21D;15950;51.112;6.966;2023-03-01T09:51:42;4.45;55.19
26721;HTU21D;15950;51.112;6.966;2023-03-01T09:54:42;4.58;54.96
26721;HTU21D;15950;51.112;6.966;2023-03-01T10:00:44;4.64;54.46
26721;HTU21D;15950;51.112;6.966;2023-03-01T10:06:51;4.90;52.86
26721;HTU21D;15950;51.112;6.966;2023-03-01T10:09:43;4.76;52.66
26721;HTU21D;15950;51.112;6.966;2023-03-01T10:12:43;4.78;52.50
26721;HTU21D;15950;51.112;6.966;2023-03-01T10:18:45;4.98;51.74
26721;HTU21D;15950;51.112;6.966;2023-03-01T10:21:45;4.72;51.04
26721;HTU21D;15950;51.112;6.966;2023-03-01T10:24:42;4.98;51.40
26721;HTU21D;15950;51.112;6.966;2023-03-01T10:30:42;4.97;50.47
26721;HTU21D;15950;51.112;6.966;2023-03-01T10:33:42;5.25;51.25
26721;HTU21D;15950;51.112;6.966;2023-03-01T10:36:43;4.91;51.02
26721;HTU21D;15950;51.112;6.966;2023-03-01T10:42:47;5.32;50.75
26721;HTU21D;15950;51.112;6.966;2023-03-01T10:45:42;5.78;50.63
26721;HTU21D;15950;51.112;6.966;2023-03-01T10:48:42;5.35;49.78
26721;HTU21D;15950;51.112;6.966;2023-03-01T10:51:44;5.78;50.28
26721;HTU21D;15950;51.112;6.966;2023-03-01T10:57:42;5.74;50.63
26721;HTU21D;15950;51.112;6.966;2023-03-01T11:00:51;5.60;50.27
26721;HTU21D;15950;51.112;6.966;2023-03-01T11:03:42;5.70;49.73
26721;HTU21D;15950;51.112;6.966;2023-03-01T11:06:42;5.95;49.06
26721;HTU21D;15950;51.112;6.966;2023-03-01T11:09:42;6.04;48.33
26721;HTU21D;15950;51.112;6.966;2023-03-01T11:12:42;5.52;48.29
26721;HTU21D;15950;51.112;6.966;2023-03-01T11:15:42;5.67;48.19
26721;HTU21D;15950;51.112;6.966;2023-03-01T11:18:42;5.83;48.40
26721;HTU21D;15950;51.112;6.966;2023-03-01T11:21:50;5.76;48.02
26721;HTU21D;15950;51.112;6.966;2023-03-01T11:24:47;5.82;48.58
26721;HTU21D;15950;51.112;6.966;2023-03-01T11:27:44;5.99;49.60
26721;HTU21D;15950;51.112;6.966;2023-03-01T11:30:53;5.97;48.33
26721;HTU21D;15950;51.112;6.966;2023-03-01T11:36:49;5.73;48.33
26721;HTU21D;15950;51.112;6.966;2023-03-01T11:39:49;5.79;48.59
26721;HTU21D;15950;51.112;6.966;2023-03-01T11:42:50;5.91;48.45
26721;HTU21D;15950;51.112;6.966;2023-03-01T12:00:44;5.94;48.90
26721;HTU21D;15950;51.112;6.966;2023-03-01T12:06:57;6.14;47.54
26721;HTU21D;15950;51.112;6.966;2023-03-01T12:33:50;6.36;46.27
26721;HTU21D;15950;51.112;6.966;2023-03-01T12:45:52;7.07;43.86
26721;HTU21D;15950;51.112;6.966;2023-03-01T12:51:50;7.22;44.16
26721;HTU21D;15950;51.112;6.966;2023-03-01T12:54:42;7.15;44.94
26721;HTU21D;15950;51.112;6.966;2023-03-01T12:57:48;7.03;46.19
26721;HTU21D;15950;51.112;6.966;2023-03-01T13:15:42;7.05;47.72
26721;HTU21D;15950;51.112;6.966;2023-03-01T13:18:42;7.20;47.38
26721;HTU21D;15950;51.112;6.966;2023-03-01T13:21:42;7.05;47.14
26721;HTU21D;15950;51.112;6.966;2023-03-01T13:24:42;7.22;47.12
26721;HTU21D;15950;51.112;6.966;2023-03-01T13:27:42;7.33;46.67
26721;HTU21D;15950;51.112;6.966;2023-03-01T13:30:42;7.31;47.00
26721;HTU21D;15950;51.112;6.966;2023-03-01T13:33:45;7.19;47.38
26721;HTU21D;15950;51.112;6.966;2023-03-01T13:36:47;7.24;47.90
26721;HTU21D;15950;51.112;6.966;2023-03-01T13:39:42;7.10;47.92
26721;HTU21D;15950;51.112;6.966;2023-03-01T13:42:43;7.13;48.28
26721;HTU21D;15950;51.112;6.966;2023-03-01T13:45:43;6.96;48.24
26721;HTU21D;15950;51.112;6.966;2023-03-01T13:48:43;6.97;48.28
26721;HTU21D;15950;51.112;6.966;2023-03-01T13:51:42;6.98;48.08
26721;HTU21D;15950;51.112;6.966;2023-03-01T13:54:42;7.11;48.14
26721;HTU21D;15950;51.112;6.966;2023-03-01T13:57:44;7.23;48.62
26721;HTU21D;15950;51.112;6.966;2023-03-01T14:00:42;7.22;48.59
26721;HTU21D;15950;51.112;6.966;2023-03-01T14:03:42;7.05;48.40
26721;HTU21D;15950;51.112;6.966;2023-03-01T14:06:42;7.17;48.74
26721;HTU21D;15950;51.112;6.966;2023-03-01T14:09:44;7.07;49.50
26721;HTU21D;15950;51.112;6.966;2023-03-01T14:12:51;7.02;49.51
26721;HTU21D;15950;51.112;6.966;2023-03-01T14:15:50;7.02;49.99
26721;HTU21D;15950;51.112;6.966;2023-03-01T14:18:48;7.11;50.19
26721;HTU21D;15950;51.112;6.966;2023-03-01T14:21:42;6.93;49.92
26721;HTU21D;15950;51.112;6.966;2023-03-01T14:24:51;7.04;49.45
26721;HTU21D;15950;51.112;6.966;2023-03-01T14:27:42;6.90;49.53
26721;HTU21D;15950;51.112;6.966;2023-03-01T14:33:42;6.84;50.20
26721;HTU21D;15950;51.112;6.966;2023-03-01T14:36:41;6.82;50.02
26721;HTU21D;15950;51.112;6.966;2023-03-01T14:39:42;6.96;50.30
26721;HTU21D;15950;51.112;6.966;2023-03-01T14:42:41;6.73;50.33
26721;HTU21D;15950;51.112;6.966;2023-03-01T14:45:47;6.82;50.40
26721;HTU21D;15950;51.112;6.966;2023-03-01T14:48:41;6.87;50.23
26721;HTU21D;15950;51.112;6.966;2023-03-01T14:51:53;6.85;50.31
26721;HTU21D;15950;51.112;6.966;2023-03-01T14:54:42;6.75;50.09
26721;HTU21D;15950;51.112;6.966;2023-03-01T14:57:47;6.70;50.08
26721;HTU21D;15950;51.112;6.966;2023-03-01T15:00:50;6.84;49.85
26721;HTU21D;15950;51.112;6.966;2023-03-01T15:03:44;6.87;48.92
26721;HTU21D;15950;51.112;6.966;2023-03-01T15:06:41;6.93;48.64
26721;HTU21D;15950;51.112;6.966;2023-03-01T15:09:42;6.93;48.57
26721;HTU21D;15950;51.112;6.966;2023-03-01T15:12:42;6.90;48.28
26721;HTU21D;15950;51.112;6.966;2023-03-01T15:15:46;7.02;48.15
26721;HTU21D;15950;51.112;6.966;2023-03-01T15:18:51;6.98;48.01
26721;HTU21D;15950;51.112;6.966;2023-03-01T15:21:46;7.07;47.30
26721;HTU21D;15950;51.112;6.966;2023-03-01T15:24:47;7.03;46.75
26721;HTU21D;15950;51.112;6.966;2023-03-01T15:27:45;7.05;46.57
26721;HTU21D;15950;51.112;6.966;2023-03-01T15:30:42;7.05;46.63
26721;HTU21D;15950;51.112;6.966;2023-03-01T15:33:42;7.11;46.84
26721;HTU21D;15950;51.112;6.966;2023-03-01T15:36:45;7.17;46.76
26721;HTU21D;15950;51.112;6.966;2023-03-01T15:39:43;7.28;47.03
26721;HTU21D;15950;51.112;6.966;2023-03-01T15:42:41;7.16;46.73
26721;HTU21D;15950;51.112;6.966;2023-03-01T15:45:42;7.04;46.96
26721;HTU21D;15950;51.112;6.966;2023-03-01T15:48:45;7.09;46.89
26721;HTU21D;15950;51.112;6.966;2023-03-01T15:51:42;7.22;46.67
26721;HTU21D;15950;51.112;6.966;2023-03-01T15:54:41;6.99;46.92
26721;HTU21D;15950;51.112;6.966;2023-03-01T15:57:41;7.17;46.95
26721;HTU21D;15950;51.112;6.966;2023-03-01T16:00:42;6.99;46.80
26721;HTU21D;15950;51.112;6.966;2023-03-01T16:03:42;7.10;46.69
26721;HTU21D;15950;51.112;6.966;2023-03-01T16:06:42;7.10;46.69
26721;HTU21D;15950;51.112;6.966;2023-03-01T16:09:42;7.06;46.82
26721;HTU21D;15950;51.112;6.966;2023-03-01T16:12:41;7.08;46.31
26721;HTU21D;15950;51.112;6.966;2023-03-01T16:15:41;7.07;46.15
26721;HTU21D;15950;51.112;6.966;2023-03-01T16:18:43;6.97;46.41
26721;HTU21D;15950;51.112;6.966;2023-03-01T16:21:42;6.84;46.59
26721;HTU21D;15950;51.112;6.966;2023-03-01T16:24:41;6.84;46.52
26721;HTU21D;15950;51.112;6.966;2023-03-01T16:27:43;6.84;46.82
26721;HTU21D;15950;51.112;6.966;2023-03-01T16:30:46;6.91;46.93
26721;HTU21D;15950;51.112;6.966;2023-03-01T16:33:41;7.00;46.70
26721;HTU21D;15950;51.112;6.966;2023-03-01T16:36:42;6.92;46.57
26721;HTU21D;15950;51.112;6.966;2023-03-01T16:39:41;6.84;46.82
26721;HTU21D;15950;51.112;6.966;2023-03-01T16:42:41;6.77;47.25
26721;HTU21D;15950;51.112;6.966;2023-03-01T16:45:41;6.68;47.62
26721;HTU21D;15950;51.112;6.966;2023-03-01T16:48:41;6.67;47.80
26721;HTU21D;15950;51.112;6.966;2023-03-01T16:51:41;6.63;47.91
26721;HTU21D;15950;51.112;6.966;2023-03-01T16:54:41;6.53;47.96
26721;HTU21D;15950;51.112;6.966;2023-03-01T16:57:41;6.52;47.81
26721;HTU21D;15950;51.112;6.966;2023-03-01T17:00:41;6.35;48.27
26721;HTU21D;15950;51.112;6.966;2023-03-01T17:03:42;6.39;48.16
26721;HTU21D;15950;51.112;6.966;2023-03-01T17:06:41;6.19;48.31
26721;HTU21D;15950;51.112;6.966;2023-03-01T17:09:41;6.32;48.41
26721;HTU21D;15950;51.112;6.966;2023-03-01T17:12:41;6.32;48.44
26721;HTU21D;15950;51.112;6.966;2023-03-01T17:15:41;6.16;49.06
26721;HTU21D;15950;51.112;6.966;2023-03-01T17:18:42;6.32;48.77
26721;HTU21D;15950;51.112;6.966;2023-03-01T17:21:41;6.28;48.77
26721;HTU21D;15950;51.112;6.966;2023-03-01T17:24:42;6.29;48.82
26721;HTU21D;15950;51.112;6.966;2023-03-01T17:27:41;6.11;49.20
26721;HTU21D;15950;51.112;6.966;2023-03-01T17:30:43;6.16;49.22
26721;HTU21D;15950;51.112;6.966;2023-03-01T17:33:41;6.11;49.11
26721;HTU21D;15950;51.112;6.966;2023-03-01T17:36:41;6.11;49.27
26721;HTU21D;15950;51.112;6.966;2023-03-01T17:39:41;6.06;49.26
26721;HTU21D;15950;51.112;6.966;2023-03-01T17:42:41;5.70;50.13
26721;HTU21D;15950;51.112;6.966;2023-03-01T17:45:43;5.87;49.93
26721;HTU21D;15950;51.112;6.966;2023-03-01T17:48:41;5.92;49.98
26721;HTU21D;15950;51.112;6.966;2023-03-01T17:51:41;5.74;50.14
26721;HTU21D;15950;51.112;6.966;2023-03-01T17:54:41;5.66;50.43
26721;HTU21D;15950;51.112;6.966;2023-03-01T17:57:41;5.67;50.43
26721;HTU21D;15950;51.112;6.966;2023-03-01T18:00:41;5.65;50.56
26721;HTU21D;15950;51.112;6.966;2023-03-01T18:03:42;5.61;50.41
26721;HTU21D;15950;51.112;6.966;2023-03-01T18:06:41;5.60;50.40
26721;HTU21D;15950;51.112;6.966;2023-03-01T18:09:41;5.48;50.85
26721;HTU21D;15950;51.112;6.966;2023-03-01T18:12:41;5.59;50.75
26721;HTU21D;15950;51.112;6.966;2023-03-01T18:15:41;5.48;50.93
26721;HTU21D;15950;51.112;6.966;2023-03-01T18:18:42;5.52;50.98
26721;HTU21D;15950;51.112;6.966;2023-03-01T18:21:41;5.52;51.15
26721;HTU21D;15950;51.112;6.966;2023-03-01T18:24:42;5.38;51.09
26721;HTU21D;15950;51.112;6.966;2023-03-01T18:27:41;5.23;51.40
26721;HTU21D;15950;51.112;6.966;2023-03-01T18:30:41;5.26;51.50
26721;HTU21D;15950;51.112;6.966;2023-03-01T18:33:41;5.20;51.74
26721;HTU21D;15950;51.112;6.966;2023-03-01T18:36:41;5.36;51.77
26721;HTU21D;15950;51.112;6.966;2023-03-01T18:39:41;5.23;51.85
26721;HTU21D;15950;51.112;6.966;2023-03-01T18:42:41;5.28;51.77
26721;HTU21D;15950;51.112;6.966;2023-03-01T18:45:41;5.28;51.66
26721;HTU21D;15950;51.112;6.966;2023-03-01T18:48:41;5.34;51.42
26721;HTU21D;15950;51.112;6.966;2023-03-01T18:51:42;5.49;51.56
26721;HTU21D;15950;51.112;6.966;2023-03-01T18:54:41;5.31;51.71
26721;HTU21D;15950;51.112;6.966;2023-03-01T18:57:41;5.22;52.01
26721;HTU21D;15950;51.112;6.966;2023-03-01T19:00:41;5.43;51.49
26721;HTU21D;15950;51.112;6.966;2023-03-01T19:03:41;5.17;51.71
26721;HTU21D;15950;51.112;6.966;2023-03-01T19:06:41;5.46;51.78
26721;HTU21D;15950;51.112;6.966;2023-03-01T19:09:41;5.04;51.78
26721;HTU21D;15950;51.112;6.966;2023-03-01T19:12:41;5.05;52.01
26721;HTU21D;15950;51.112;6.966;2023-03-01T19:15:41;5.23;51.95
26721;HTU21D;15950;51.112;6.966;2023-03-01T19:18:43;5.14;51.96
26721;HTU21D;15950;51.112;6.966;2023-03-01T19:21:41;5.48;51.49
26721;HTU21D;15950;51.112;6.966;2023-03-01T19:24:41;5.44;51.66
26721;HTU21D;15950;51.112;6.966;2023-03-01T19:27:41;5.24;51.76
26721;HTU21D;15950;51.112;6.966;2023-03-01T19:30:41;5.19;51.93
26721;HTU21D;15950;51.112;6.966;2023-03-01T19:33:42;5.22;52.01
26721;HTU21D;15950;51.112;6.966;2023-03-01T19:36:43;5.29;52.20
26721;HTU21D;15950;51.112;6.966;2023-03-01T19:39:42;4.88;52.75
26721;HTU21D;15950;51.112;6.966;2023-03-01T19:42:41;5.02;52.69
26721;HTU21D;15950;51.112;6.966;2023-03-01T19:45:41;4.71;52.87
26721;HTU21D;15950;51.112;6.966;2023-03-01T19:48:41;4.89;53.01
26721;HTU21D;15950;51.112;6.966;2023-03-01T19:51:41;4.97;52.95
26721;HTU21D;15950;51.112;6.966;2023-03-01T19:54:41;4.87;53.28
26721;HTU21D;15950;51.112;6.966;2023-03-01T19:57:41;4.95;53.39
26721;HTU21D;15950;51.112;6.966;2023-03-01T20:00:45;4.85;53.51
26721;HTU21D;15950;51.112;6.966;2023-03-01T20:03:41;4.88;53.37
26721;HTU21D;15950;51.112;6.966;2023-03-01T20:06:47;5.11;53.65
26721;HTU21D;15950;51.112;6.966;2023-03-01T20:09:41;5.20;53.58
26721;HTU21D;15950;51.112;6.966;2023-03-01T20:12:41;5.06;53.72
26721;HTU21D;15950;51.112;6.966;2023-03-01T20:15:42;5.11;53.77
26721;HTU21D;15950;51.112;6.966;2023-03-01T20:18:41;5.22;53.66
26721;HTU21D;15950;51.112;6.966;2023-03-01T20:21:41;5.30;53.49
26721;HTU21D;15950;51.112;6.966;2023-03-01T20:24:41;5.00;54.19
26721;HTU21D;15950;51.112;6.966;2023-03-01T20:27:41;4.99;54.52
26721;HTU21D;15950;51.112;6.966;2023-03-01T20:30:41;4.82;55.03
26721;HTU21D;15950;51.112;6.966;2023-03-01T20:33:41;4.79;55.26
26721;HTU21D;15950;51.112;6.966;2023-03-01T20:36:41;4.93;55.10